Las Palmas, Spain
Current Conditions -  °F | °C
As of 10:30 AM on Thursday 23 Oct 2014 (Local Time) from GCLP Reporting Station
Clear Clear  
Wind Chill: 82°   Ceiling: Unl
Heat Index: 82°   Visibility: 6mi
Dew Point: 57°   Wind: 14mph
Humidity: 42%   Direction: 20°NNE
Pressure: 30.06"   Gusts: NA
Location:  28.12°N, 15.43°W
Report Text: GCLP 230930Z 02012KT CAVOK 28/14 Q1018 NOSIG
Loading
Personal Weather Stations






























Interactive Weather Map New forecast layout! Learn more

10-Day Weather Forecast

Advertisements
Track Severe Weather on mobile